.
WxDataArchive / Data Records for 2009-10-18
2009-10-17 October 2009 2009-10-19

Data Records for Sunday, 18 October 2009

Time	Temp	Chill	HIndex	Humid	Dewpt	 Wind 	HiWind	WindDir	Rain 	Barom 
-----	----	-----	------	-----	-----	------	------	-------	-----	----- 
00:00	31.9	31.9	31.9	85	27.9	0	0	---	0.00	30.330 
00:05	31.8	31.8	31.8	85	27.8	0	0	---	0.00	30.330 
00:10	31.6	31.6	31.6	85	27.6	0	0	---	0.00	30.330 
00:15	31.5	31.5	31.5	86	27.8	0	0	---	0.00	30.327 
00:20	31.3	31.3	31.3	86	27.6	0	0	---	0.00	30.327 
00:25	31.2	31.2	31.2	86	27.5	0	0	---	0.00	30.327 
00:30	31.0	31.0	31.0	87	27.6	0	0	---	0.00	30.326 
00:35	31.0	31.0	31.0	87	27.6	0	0	---	0.00	30.326 
00:40	30.9	30.9	30.9	87	27.5	0	0	---	0.00	30.326 
00:45	30.9	30.9	30.9	87	27.5	0	0	---	0.00	30.325 
00:50	31.0	31.0	31.0	88	27.9	0	0	---	0.00	30.325 
00:55	31.0	31.0	31.0	88	27.9	0	0	---	0.00	30.325 
01:00	31.0	31.0	31.0	88	27.9	0	0	---	0.00	30.325 
01:05	30.9	30.9	30.9	88	27.8	0	0	---	0.00	30.325 
01:10	30.9	30.9	30.9	88	27.8	0	0	---	0.00	30.325 
01:15	30.9	30.9	30.9	89	28.0	0	0	---	0.00	30.325 
01:20	31.0	31.0	31.0	89	28.1	0	0	---	0.00	30.325 
01:25	31.0	31.0	31.0	90	28.4	0	0	---	0.00	30.325 
01:30	31.2	31.2	31.2	90	28.6	0	0	---	0.00	30.325 
01:35	31.2	31.2	31.2	90	28.6	0	0	---	0.00	30.325 
01:40	31.0	31.0	31.0	90	28.4	0	0	---	0.00	30.325 
01:45	31.2	31.2	31.2	90	28.6	0	0	---	0.00	30.326 
01:50	31.2	31.2	31.2	90	28.6	0	0	---	0.00	30.326 
01:55	31.0	31.0	31.0	90	28.4	0	0	---	0.00	30.326 
02:00	31.0	31.0	31.0	90	28.4	0	0	---	0.00	30.327 
02:05	30.9	30.9	30.9	91	28.6	0	0	---	0.00	30.327 
02:10	30.9	30.9	30.9	91	28.6	0	0	---	0.00	30.327 
02:15	30.7	30.7	30.7	91	28.4	0	0	---	0.00	30.327 
02:20	30.6	30.6	30.6	91	28.3	0	0	---	0.00	30.327 
02:25	30.6	30.6	30.6	91	28.3	0	0	---	0.00	30.327 
02:30	30.4	30.4	30.4	91	28.1	0	0	---	0.00	30.329 
02:35	30.3	30.3	30.3	91	28.0	0	0	---	0.00	30.329 
02:40	30.1	30.1	30.1	91	27.8	0	0	---	0.00	30.329 
02:45	30.0	30.0	30.0	91	27.7	0	0	---	0.00	30.334 
02:50	30.0	30.0	30.0	91	27.7	0	0	---	0.00	30.334 
02:55	29.8	29.8	29.8	91	27.5	0	0	---	0.00	30.334 
03:00	29.5	29.5	29.5	91	27.2	0	0	---	0.00	30.331 
03:05	29.5	29.5	29.5	92	27.5	0	0	---	0.00	30.331 
03:10	29.4	29.4	29.4	92	27.4	0	0	---	0.00	30.331 
03:15	29.4	29.4	29.4	92	27.4	0	0	---	0.00	30.332 
03:20	29.3	29.3	29.3	92	27.3	0	0	---	0.00	30.332 
03:25	29.1	29.1	29.1	92	27.1	0	0	---	0.00	30.332 
03:30	29.1	29.1	29.1	92	27.1	0	0	---	0.00	30.329 
03:35	29.1	29.1	29.1	92	27.1	0	0	---	0.00	30.329 
03:40	29.0	29.0	29.0	92	27.0	0	0	---	0.00	30.329 
03:45	28.8	28.8	28.8	92	26.8	0	0	---	0.00	30.330 
03:50	28.8	28.8	28.8	92	26.8	0	0	---	0.00	30.330 
03:55	28.7	28.7	28.7	92	26.7	0	0	---	0.00	30.330 
04:00	28.5	28.5	28.5	92	26.5	0	0	---	0.00	30.328 
04:05	28.5	28.5	28.5	92	26.5	0	0	---	0.00	30.328 
04:10	28.4	28.4	28.4	92	26.4	0	0	---	0.00	30.328 
04:15	28.2	28.2	28.2	92	26.2	0	0	---	0.00	30.329 
04:20	28.2	28.2	28.2	92	26.2	0	0	---	0.00	30.329 
04:25	28.2	28.2	28.2	92	26.2	0	0	---	0.00	30.329 
04:30	28.1	28.1	28.1	92	26.1	0	0	---	0.00	30.329 
04:35	28.1	28.1	28.1	92	26.1	0	0	---	0.00	30.329 
04:40	27.9	27.9	27.9	92	25.9	0	0	---	0.00	30.329 
04:45	27.9	27.9	27.9	92	25.9	0	0	---	0.00	30.331 
04:50	27.8	27.8	27.8	92	25.8	0	0	---	0.00	30.331 
04:55	27.8	27.8	27.8	92	25.8	0	0	---	0.00	30.331 
05:00	27.6	27.6	27.6	92	25.6	0	0	---	0.00	30.334 
05:05	27.6	27.6	27.6	92	25.6	0	0	---	0.00	30.334 
05:10	27.8	27.8	27.8	93	26.0	0	0	---	0.00	30.334 
05:15	27.8	27.8	27.8	93	26.0	0	1	90	0.00	30.344 
05:20	28.2	28.2	28.2	93	26.4	0	1	---	0.00	30.344 
05:25	28.5	28.5	28.5	93	26.7	0	0	---	0.00	30.344 
05:30	28.7	28.7	28.7	93	26.9	0	0	---	0.00	30.344 
05:35	28.8	28.8	28.8	93	27.0	0	0	---	0.00	30.344 
05:40	28.8	28.8	28.8	93	27.0	0	0	---	0.00	30.344 
05:45	28.8	28.8	28.8	93	27.0	0	0	---	0.00	30.345 
05:50	28.8	28.8	28.8	93	27.0	0	0	---	0.00	30.345 
05:55	28.7	28.7	28.7	93	26.9	0	0	---	0.00	30.345 
06:00	28.7	28.7	28.7	93	26.9	0	0	---	0.00	30.347 
06:05	28.7	28.7	28.7	93	26.9	0	0	---	0.00	30.347 
06:10	28.8	28.8	28.8	93	27.0	0	0	---	0.00	30.347 
06:15	29.0	29.0	29.0	94	27.5	0	0	---	0.00	30.352 
06:20	29.1	29.1	29.1	94	27.6	0	0	---	0.00	30.352 
06:25	29.3	29.3	29.3	94	27.8	0	0	---	0.00	30.352 
06:30	29.3	29.3	29.3	94	27.8	0	0	---	0.00	30.353 
06:35	29.3	29.3	29.3	94	27.8	0	0	---	0.00	30.353 
06:40	29.4	29.4	29.4	94	27.9	0	0	---	0.00	30.353 
06:45	29.4	29.4	29.4	94	27.9	0	0	---	0.00	30.355 
06:50	29.4	29.4	29.4	94	27.9	0	0	---	0.00	30.355 
06:55	29.4	29.4	29.4	94	27.9	0	0	---	0.00	30.355 
07:00	29.4	29.4	29.4	94	27.9	0	0	---	0.00	30.349 
07:05	29.4	29.4	29.4	94	27.9	0	0	---	0.00	30.349 
07:10	29.5	29.5	29.5	94	28.0	0	0	---	0.00	30.349 
07:15	29.5	29.5	29.5	94	28.0	0	0	---	0.00	30.353 
07:20	29.7	29.7	29.7	94	28.2	0	0	---	0.00	30.353 
07:25	29.8	29.8	29.8	94	28.3	0	0	---	0.00	30.353 
07:30	29.8	29.8	29.8	94	28.3	0	0	---	0.00	30.363 
07:35	30.0	30.0	30.0	94	28.5	0	1	90	0.00	30.363 
07:40	30.0	30.0	30.0	94	28.5	0	0	---	0.00	30.363 
07:45	30.0	30.0	30.0	94	28.5	0	0	---	0.00	30.366 
07:50	30.1	30.1	30.1	94	28.6	0	0	---	0.00	30.366 
07:55	30.3	30.3	30.3	94	28.8	0	0	---	0.00	30.366 
08:00	30.3	30.3	30.3	94	28.8	0	0	---	0.00	30.369 
08:05	30.3	30.3	30.3	94	28.8	0	0	---	0.00	30.369 
08:10	30.3	30.3	30.3	94	28.8	0	0	---	0.00	30.369 
08:15	30.3	30.3	30.3	94	28.8	0	0	---	0.00	30.372 
08:20	30.3	30.3	30.3	94	28.8	0	0	---	0.00	30.372 
08:25	30.1	30.1	30.1	94	28.6	0	0	---	0.00	30.372 
08:30	30.1	30.1	30.1	94	28.6	0	0	---	0.00	30.370 
08:35	30.3	30.3	30.3	94	28.8	0	0	---	0.00	30.370 
08:40	30.3	30.3	30.3	94	28.8	0	0	---	0.00	30.370 
08:45	30.3	30.3	30.3	94	28.8	0	0	---	0.00	30.380 
08:50	30.4	30.4	30.4	94	28.9	0	0	---	0.00	30.380 
08:55	30.6	30.6	30.6	94	29.1	0	0	---	0.00	30.380 
09:00	30.7	30.7	30.7	95	29.4	0	0	---	0.00	30.380 
09:05	31.0	31.0	31.0	95	29.7	0	0	---	0.00	30.380 
09:10	31.3	31.3	31.3	95	30.0	0	0	---	0.00	30.380 
09:15	31.6	31.6	31.6	95	30.3	0	0	---	0.00	30.386 
09:20	32.1	32.1	32.1	95	30.8	0	0	---	0.00	30.386 
09:25	32.5	32.5	32.5	95	31.2	0	0	---	0.00	30.386 
09:30	32.9	32.9	32.9	95	31.6	0	1	112	0.00	30.389 
09:35	33.5	33.5	33.5	95	32.2	0	0	---	0.00	30.389 
09:40	34.3	34.3	34.3	96	33.3	0	0	---	0.00	30.389 
09:45	35.0	35.0	35.0	96	34.0	0	0	---	0.00	30.382 
09:50	35.9	35.9	35.9	96	34.9	0	0	---	0.00	30.382 
09:55	36.8	36.8	36.8	96	35.8	0	0	---	0.00	30.382 
10:00	37.6	37.6	37.6	96	36.6	0	1	112	0.00	30.387 
10:05	38.3	38.3	38.3	96	37.3	0	1	112	0.00	30.387 
10:10	38.8	38.8	38.8	95	37.5	0	1	112	0.00	30.387 
10:15	39.6	39.6	39.6	95	38.3	0	1	112	0.00	30.390 
10:20	40.2	40.2	40.2	93	38.3	0	1	112	0.00	30.390 
10:25	40.8	40.8	40.8	91	38.4	0	0	---	0.00	30.390 
10:30	41.5	41.5	41.5	88	38.2	0	1	112	0.00	30.391 
10:35	42.1	42.1	42.1	84	37.6	0	1	112	0.00	30.391 
10:40	42.5	42.5	42.5	81	37.1	0	1	112	0.00	30.391 
10:45	43.1	43.1	43.1	80	37.4	0	0	---	0.00	30.390 
10:50	44.1	44.1	44.1	79	38.0	0	0	---	0.00	30.390 
10:55	44.6	44.6	44.6	75	37.2	0	1	112	0.00	30.390 
11:00	44.9	44.9	44.9	74	37.1	0	2	112	0.00	30.388 
11:05	45.2	45.2	45.2	72	36.7	0	2	112	0.00	30.388 
11:10	45.7	45.7	45.7	70	36.5	0	2	270	0.00	30.388 
11:15	46.1	46.1	46.1	71	37.2	0	2	270	0.00	30.385 
11:20	46.4	46.4	46.4	67	36.0	0	3	248	0.00	30.385 
11:25	46.8	46.8	46.8	67	36.4	0	1	248	0.00	30.385 
11:30	47.1	47.1	47.1	65	35.9	0	1	270	0.00	30.380 
11:35	47.3	47.3	47.3	65	36.1	0	2	270	0.00	30.380 
11:40	47.6	47.6	47.6	64	36.0	0	2	270	0.00	30.380 
11:45	48.2	48.2	48.2	62	35.8	0	2	292	0.00	30.377 
11:50	48.5	48.5	48.5	62	36.1	0	2	248	0.00	30.377 
11:55	48.8	48.8	48.8	59	35.1	0	2	248	0.00	30.377 
12:00	49.1	49.1	49.1	58	35.0	1	3	270	0.00	30.372 
12:05	48.9	48.9	48.9	59	35.2	1	2	248	0.00	30.372 
12:10	49.4	49.4	49.4	58	35.2	0	2	248	0.00	30.372 
12:15	49.8	49.8	49.8	58	35.6	0	1	248	0.00	30.374 
12:20	50.4	50.4	50.4	57	35.7	0	2	248	0.00	30.374 
12:25	50.5	50.5	50.5	56	35.4	1	2	248	0.00	30.374 
12:30	49.6	49.6	49.6	56	34.6	0	1	315	0.00	30.371 
12:35	49.6	49.6	49.6	60	36.3	0	2	315	0.00	30.371 
12:40	49.9	49.9	49.9	56	34.8	1	3	315	0.00	30.371 
12:45	49.9	49.9	49.9	54	33.9	0	2	248	0.00	30.367 
12:50	49.9	49.9	49.9	54	33.9	0	2	248	0.00	30.367 
12:55	49.6	49.6	49.6	54	33.6	0	2	248	0.00	30.367 
13:00	49.2	49.2	49.2	57	34.6	0	2	248	0.00	30.366 
13:05	48.5	48.5	48.5	58	34.4	0	1	315	0.00	30.366 
13:10	48.8	48.8	48.8	60	35.5	0	2	0	0.00	30.366 
13:15	49.5	49.5	49.5	58	35.3	0	2	202	0.00	30.361 
13:20	49.6	49.6	49.6	56	34.6	0	1	202	0.00	30.361 
13:25	49.8	49.8	49.8	56	34.7	0	2	292	0.00	30.361 
13:30	49.6	49.6	49.6	55	34.1	0	2	292	0.00	30.356 
13:35	49.5	49.5	49.5	54	33.6	0	0	---	0.00	30.356 
13:40	49.5	49.5	49.5	55	34.0	1	2	202	0.00	30.356 
13:45	49.2	49.2	49.2	54	33.3	1	3	270	0.00	30.349 
13:50	49.4	49.4	49.4	56	34.4	0	2	338	0.00	30.349 
13:55	49.5	49.5	49.5	54	33.6	1	2	270	0.00	30.349 
14:00	49.8	49.8	49.8	55	34.3	0	3	270	0.00	30.342 
14:05	49.9	49.9	49.9	54	33.9	0	1	270	0.00	30.342 
14:10	50.1	50.1	50.1	56	35.0	1	3	270	0.00	30.342 
14:15	49.9	49.9	49.9	52	33.0	0	2	225	0.00	30.339 
14:20	49.8	49.8	49.8	54	33.8	1	2	225	0.00	30.339 
14:25	49.6	49.6	49.6	57	35.0	1	3	225	0.00	30.339 
14:30	49.6	49.6	49.6	55	34.1	0	3	225	0.00	30.332 
14:35	49.6	49.6	49.6	57	35.0	0	1	0	0.00	30.332 
14:40	49.8	49.8	49.8	55	34.3	1	3	225	0.00	30.332 
14:45	49.9	49.9	49.9	54	33.9	1	3	248	0.00	30.324 
14:50	49.9	49.9	49.9	55	34.4	1	2	248	0.00	30.324 
14:55	49.8	49.8	49.8	54	33.8	0	2	248	0.00	30.324 
15:00	49.8	49.8	49.8	56	34.7	1	4	248	0.00	30.321 
15:05	49.9	49.9	49.9	55	34.4	0	2	248	0.00	30.321 
15:10	50.1	50.1	50.1	54	34.1	1	3	248	0.00	30.321 
15:15	50.2	50.2	50.2	54	34.2	1	4	270	0.00	30.316 
15:20	49.9	49.9	49.9	53	33.5	1	4	270	0.00	30.316 
15:25	49.9	49.9	49.9	54	33.9	0	2	292	0.00	30.316 
15:30	50.5	50.5	50.5	54	34.5	1	3	292	0.00	30.310 
15:35	51.0	51.0	51.0	52	34.0	1	3	248	0.00	30.310 
15:40	50.5	50.5	50.5	53	34.0	0	2	248	0.00	30.310 
15:45	50.4	50.4	50.4	54	34.4	1	2	248	0.00	30.307 
15:50	50.2	50.2	50.2	53	33.7	0	2	248	0.00	30.307 
15:55	50.1	50.1	50.1	54	34.1	0	3	248	0.00	30.307 
16:00	50.4	50.4	50.4	51	33.0	1	4	248	0.00	30.306 
16:05	50.5	50.5	50.5	52	33.5	0	2	248	0.00	30.306 
16:10	50.7	50.7	50.7	49	32.2	1	3	248	0.00	30.306 
16:15	50.5	50.5	50.5	50	32.6	0	1	315	0.00	30.304 
16:20	50.4	50.4	50.4	52	33.4	1	4	270	0.00	30.304 
16:25	50.1	50.1	50.1	53	33.6	1	2	270	0.00	30.304 
16:30	49.9	49.9	49.9	52	33.0	0	2	270	0.00	30.303 
16:35	49.9	49.9	49.9	53	33.5	0	2	270	0.00	30.303 
16:40	50.1	50.1	50.1	53	33.6	1	3	270	0.00	30.303 
16:45	50.2	50.2	50.2	53	33.7	0	2	248	0.00	30.294 
16:50	50.4	50.4	50.4	55	34.8	0	3	315	0.00	30.294 
16:55	50.5	50.5	50.5	52	33.5	1	2	315	0.00	30.294 
17:00	50.4	50.4	50.4	51	33.0	0	1	315	0.00	30.292 
17:05	50.1	50.1	50.1	52	33.2	0	2	248	0.00	30.292 
17:10	49.9	49.9	49.9	53	33.5	0	1	248	0.00	30.292 
17:15	49.9	49.9	49.9	54	33.9	0	0	---	0.00	30.286 
17:20	50.1	50.1	50.1	52	33.2	0	1	248	0.00	30.286 
17:25	50.1	50.1	50.1	51	32.7	1	2	315	0.00	30.286 
17:30	50.2	50.2	50.2	51	32.8	0	2	315	0.00	30.289 
17:35	50.2	50.2	50.2	51	32.8	0	1	315	0.00	30.289 
17:40	50.4	50.4	50.4	52	33.4	0	2	315	0.00	30.289 
17:45	50.5	50.5	50.5	51	33.1	1	3	315	0.00	30.289 
17:50	50.4	50.4	50.4	50	32.5	0	2	315	0.00	30.289 
17:55	50.2	50.2	50.2	51	32.8	0	2	315	0.00	30.289 
18:00	50.1	50.1	50.1	51	32.7	0	3	315	0.00	30.286 
18:05	49.9	49.9	49.9	51	32.5	0	2	248	0.00	30.286 
18:10	49.8	49.8	49.8	52	32.9	0	1	248	0.00	30.286 
18:15	49.6	49.6	49.6	53	33.2	0	2	248	0.00	30.286 
18:20	49.5	49.5	49.5	53	33.1	0	1	248	0.00	30.286 
18:25	49.4	49.4	49.4	53	33.0	0	1	248	0.00	30.286 
18:30	49.1	49.1	49.1	54	33.2	0	1	248	0.00	30.279 
18:35	48.8	48.8	48.8	55	33.4	0	1	248	0.00	30.279 
18:40	48.5	48.5	48.5	56	33.5	0	0	---	0.00	30.279 
18:45	48.2	48.2	48.2	56	33.2	0	0	---	0.00	30.278 
18:50	47.7	47.7	47.7	57	33.2	0	0	---	0.00	30.278 
18:55	47.3	47.3	47.3	60	34.1	0	0	---	0.00	30.278 
19:00	46.7	46.7	46.7	61	34.0	0	0	---	0.00	30.277 
19:05	46.1	46.1	46.1	62	33.8	0	0	---	0.00	30.277 
19:10	45.7	45.7	45.7	62	33.4	0	0	---	0.00	30.277 
19:15	45.2	45.2	45.2	64	33.8	0	0	---	0.00	30.275 
19:20	44.6	44.6	44.6	65	33.6	0	0	---	0.00	30.275 
19:25	44.1	44.1	44.1	66	33.5	0	0	---	0.00	30.275 
19:30	43.6	43.6	43.6	68	33.7	0	0	---	0.00	30.276 
19:35	43.2	43.2	43.2	68	33.4	0	0	---	0.00	30.276 
19:40	42.8	42.8	42.8	69	33.3	0	0	---	0.00	30.276 
19:45	42.3	42.3	42.3	70	33.2	0	0	---	0.00	30.273 
19:50	41.9	41.9	41.9	72	33.5	0	0	---	0.00	30.273 
19:55	41.6	41.6	41.6	73	33.6	0	0	---	0.00	30.273 
20:00	41.2	41.2	41.2	75	33.9	0	0	---	0.00	30.275 
20:05	40.8	40.8	40.8	75	33.5	0	0	---	0.00	30.275 
20:10	40.5	40.5	40.5	76	33.5	0	0	---	0.00	30.275 
20:15	40.2	40.2	40.2	77	33.6	0	0	---	0.00	30.272 
20:20	40.1	40.1	40.1	77	33.5	0	0	---	0.00	30.272 
20:25	39.8	39.8	39.8	78	33.5	0	0	---	0.00	30.272 
20:30	39.5	39.5	39.5	79	33.5	0	0	---	0.00	30.270 
20:35	39.2	39.2	39.2	80	33.6	0	0	---	0.00	30.270 
20:40	39.1	39.1	39.1	81	33.8	0	0	---	0.00	30.270 
20:45	38.9	38.9	38.9	81	33.6	0	0	---	0.00	30.265 
20:50	38.9	38.9	38.9	82	33.9	0	0	---	0.00	30.265 
20:55	39.1	39.1	39.1	82	34.1	0	0	---	0.00	30.265 
21:00	39.2	39.2	39.2	82	34.2	0	0	---	0.00	30.253 
21:05	39.3	39.3	39.3	82	34.3	0	0	---	0.00	30.253 
21:10	39.5	39.5	39.5	82	34.5	0	0	---	0.00	30.253 
21:15	39.8	39.8	39.8	81	34.5	0	0	---	0.00	30.245 
21:20	40.1	40.1	40.1	81	34.7	0	0	---	0.00	30.245 
21:25	40.2	40.2	40.2	80	34.5	0	0	---	0.00	30.245 
21:30	40.3	40.3	40.3	80	34.6	0	0	---	0.00	30.242 
21:35	40.3	40.3	40.3	80	34.6	0	0	---	0.00	30.242 
21:40	40.3	40.3	40.3	79	34.3	0	0	---	0.00	30.242 
21:45	40.2	40.2	40.2	79	34.2	0	0	---	0.00	30.246 
21:50	40.1	40.1	40.1	79	34.1	0	0	---	0.00	30.246 
21:55	39.8	39.8	39.8	79	33.8	0	0	---	0.00	30.246 
22:00	39.5	39.5	39.5	79	33.5	0	0	---	0.00	30.240 
22:05	39.3	39.3	39.3	80	33.7	0	0	---	0.00	30.240 
22:10	39.1	39.1	39.1	81	33.8	0	0	---	0.00	30.240 
22:15	38.8	38.8	38.8	81	33.5	0	0	---	0.00	30.230 
22:20	38.6	38.6	38.6	82	33.6	0	0	---	0.00	30.230 
22:25	38.5	38.5	38.5	82	33.5	0	0	---	0.00	30.230 
22:30	38.3	38.3	38.3	82	33.3	0	0	---	0.00	30.234 
22:35	38.2	38.2	38.2	82	33.2	0	0	---	0.00	30.234 
22:40	38.0	38.0	38.0	82	33.0	0	0	---	0.00	30.234 
22:45	37.9	37.9	37.9	83	33.2	0	0	---	0.00	30.231 
22:50	37.8	37.8	37.8	83	33.1	0	0	---	0.00	30.231 
22:55	37.6	37.6	37.6	84	33.2	0	0	---	0.00	30.231 
23:00	37.5	37.5	37.5	84	33.1	0	0	---	0.00	30.230 
23:05	37.5	37.5	37.5	84	33.1	0	0	---	0.00	30.230 
23:10	37.5	37.5	37.5	84	33.1	0	0	---	0.00	30.230 
23:15	37.3	37.3	37.3	84	32.9	0	0	---	0.00	30.224 
23:20	37.3	37.3	37.3	84	32.9	0	0	---	0.00	30.224 
23:25	37.3	37.3	37.3	84	32.9	0	0	---	0.00	30.224 
23:30	37.3	37.3	37.3	84	32.9	0	0	---	0.00	30.224 
23:35	37.3	37.3	37.3	84	32.9	0	0	---	0.00	30.224 
23:40	37.3	37.3	37.3	84	32.9	0	0	---	0.00	30.224 
23:45	37.3	37.3	37.3	84	32.9	0	0	---	0.00	30.223 
23:50	37.5	37.5	37.5	83	32.8	0	0	---	0.00	30.223 
23:55	37.5	37.5	37.5	83	32.8	0	0	---	0.00	30.223 

CoCoRaHS
IN-AL-39
A2 Web Hosting
Creative Commons License
GoDaddy
search engine by freefind advanced

loaded 2018-11-15 14:45:50 • last modified 2010-11-18 10:43:29
Privacy PolicyDisclaimer
• wx.awcolley.com is powered by PmWiki v.2002016 •
• all content (unless otherwise noted) © 2018 A W Colley